sensor_id;sensor_type;location;lat;lon;timestamp;temperature;humidity
26378;DHT22;14078;50.974;6.786;2023-02-08T00:00:58;-0.10;1.00
26378;DHT22;14078;50.974;6.786;2023-02-08T00:03:25;-0.10;1.00
26378;DHT22;14078;50.974;6.786;2023-02-08T00:05:54;-0.20;1.00
26378;DHT22;14078;50.974;6.786;2023-02-08T00:08:21;-0.20;1.00
26378;DHT22;14078;50.974;6.786;2023-02-08T00:10:47;-0.30;25.00
26378;DHT22;14078;50.974;6.786;2023-02-08T00:13:14;-0.30;35.40
26378;DHT22;14078;50.974;6.786;2023-02-08T00:15:41;-0.30;55.20
26378;DHT22;14078;50.974;6.786;2023-02-08T00:18:07;-0.30;55.80
26378;DHT22;14078;50.974;6.786;2023-02-08T00:20:34;-0.30;58.20
26378;DHT22;14078;50.974;6.786;2023-02-08T00:23:04;-0.30;66.50
26378;DHT22;14078;50.974;6.786;2023-02-08T00:25:31;-0.40;50.10
26378;DHT22;14078;50.974;6.786;2023-02-08T00:27:57;-0.40;42.90
26378;DHT22;14078;50.974;6.786;2023-02-08T00:30:23;-0.40;33.80
26378;DHT22;14078;50.974;6.786;2023-02-08T00:32:50;-0.40;13.40
26378;DHT22;14078;50.974;6.786;2023-02-08T00:35:17;-0.30;1.00
26378;DHT22;14078;50.974;6.786;2023-02-08T00:37:43;-0.30;1.00
26378;DHT22;14078;50.974;6.786;2023-02-08T00:40:11;-0.30;1.00
26378;DHT22;14078;50.974;6.786;2023-02-08T00:42:38;-0.30;1.00
26378;DHT22;14078;50.974;6.786;2023-02-08T00:45:04;-0.30;1.00
26378;DHT22;14078;50.974;6.786;2023-02-08T00:47:31;-0.30;1.00
26378;DHT22;14078;50.974;6.786;2023-02-08T00:49:58;-0.40;1.00
26378;DHT22;14078;50.974;6.786;2023-02-08T00:52:24;-0.40;1.00
26378;DHT22;14078;50.974;6.786;2023-02-08T00:54:51;-0.40;1.00
26378;DHT22;14078;50.974;6.786;2023-02-08T00:57:19;-0.30;1.00
26378;DHT22;14078;50.974;6.786;2023-02-08T00:59:45;-0.40;1.00
26378;DHT22;14078;50.974;6.786;2023-02-08T01:02:12;-0.40;1.00
26378;DHT22;14078;50.974;6.786;2023-02-08T01:04:38;-0.40;1.00
26378;DHT22;14078;50.974;6.786;2023-02-08T01:07:05;-0.40;1.00
26378;DHT22;14078;50.974;6.786;2023-02-08T01:09:32;-0.40;1.00
26378;DHT22;14078;50.974;6.786;2023-02-08T01:11:59;-0.40;99.90
26378;DHT22;14078;50.974;6.786;2023-02-08T01:14:27;-0.40;99.90
26378;DHT22;14078;50.974;6.786;2023-02-08T01:16:53;-0.40;99.90
26378;DHT22;14078;50.974;6.786;2023-02-08T01:19:20;-0.40;99.90
26378;DHT22;14078;50.974;6.786;2023-02-08T01:21:46;-0.40;1.00
26378;DHT22;14078;50.974;6.786;2023-02-08T01:24:14;-0.40;99.90
26378;DHT22;14078;50.974;6.786;2023-02-08T01:26:41;-0.50;1.00
26378;DHT22;14078;50.974;6.786;2023-02-08T01:29:07;-0.50;1.00
26378;DHT22;14078;50.974;6.786;2023-02-08T01:31:36;-0.50;1.00
26378;DHT22;14078;50.974;6.786;2023-02-08T01:34:03;-0.50;1.00
26378;DHT22;14078;50.974;6.786;2023-02-08T01:36:30;-0.50;1.00
26378;DHT22;14078;50.974;6.786;2023-02-08T01:38:57;-0.60;1.00
26378;DHT22;14078;50.974;6.786;2023-02-08T01:41:24;-0.60;1.00
26378;DHT22;14078;50.974;6.786;2023-02-08T01:44:02;-0.60;1.00
26378;DHT22;14078;50.974;6.786;2023-02-08T01:46:29;-0.60;1.00
26378;DHT22;14078;50.974;6.786;2023-02-08T01:48:58;-0.60;1.00
26378;DHT22;14078;50.974;6.786;2023-02-08T01:51:26;-0.60;1.00
26378;DHT22;14078;50.974;6.786;2023-02-08T01:53:54;-0.70;1.00
26378;DHT22;14078;50.974;6.786;2023-02-08T01:56:24;-0.70;1.00
26378;DHT22;14078;50.974;6.786;2023-02-08T01:58:52;-0.60;1.00
26378;DHT22;14078;50.974;6.786;2023-02-08T02:01:20;-0.50;1.00
26378;DHT22;14078;50.974;6.786;2023-02-08T02:03:47;-0.50;1.00
26378;DHT22;14078;50.974;6.786;2023-02-08T02:06:15;-0.60;1.00
26378;DHT22;14078;50.974;6.786;2023-02-08T02:08:43;-0.60;1.00
26378;DHT22;14078;50.974;6.786;2023-02-08T02:11:14;-0.60;1.00
26378;DHT22;14078;50.974;6.786;2023-02-08T02:13:41;-0.60;1.00
26378;DHT22;14078;50.974;6.786;2023-02-08T02:16:07;-0.70;1.00
26378;DHT22;14078;50.974;6.786;2023-02-08T02:18:34;-0.60;1.00
26378;DHT22;14078;50.974;6.786;2023-02-08T02:21:08;-0.70;99.90
26378;DHT22;14078;50.974;6.786;2023-02-08T02:26:39;-0.70;1.00
26378;DHT22;14078;50.974;6.786;2023-02-08T02:29:14;-0.70;1.00
26378;DHT22;14078;50.974;6.786;2023-02-08T02:31:50;-0.70;1.00
26378;DHT22;14078;50.974;6.786;2023-02-08T02:34:21;-0.70;1.00
26378;DHT22;14078;50.974;6.786;2023-02-08T02:36:52;-0.70;1.00
26378;DHT22;14078;50.974;6.786;2023-02-08T02:39:24;-0.70;1.00
26378;DHT22;14078;50.974;6.786;2023-02-08T02:41:55;-0.70;1.00
26378;DHT22;14078;50.974;6.786;2023-02-08T02:44:41;-0.70;1.00
26378;DHT22;14078;50.974;6.786;2023-02-08T02:47:14;-0.60;99.90
26378;DHT22;14078;50.974;6.786;2023-02-08T02:49:46;-0.50;99.90
26378;DHT22;14078;50.974;6.786;2023-02-08T02:52:13;-0.60;99.90
26378;DHT22;14078;50.974;6.786;2023-02-08T02:54:44;-0.60;99.90
26378;DHT22;14078;50.974;6.786;2023-02-08T02:57:13;-0.60;99.90
26378;DHT22;14078;50.974;6.786;2023-02-08T02:59:41;-0.60;1.00
26378;DHT22;14078;50.974;6.786;2023-02-08T03:02:09;-0.60;1.00
26378;DHT22;14078;50.974;6.786;2023-02-08T03:04:47;-0.60;1.00
26378;DHT22;14078;50.974;6.786;2023-02-08T03:07:15;-0.70;1.00
26378;DHT22;14078;50.974;6.786;2023-02-08T03:09:48;-0.70;1.00
26378;DHT22;14078;50.974;6.786;2023-02-08T03:12:21;-0.60;99.90
26378;DHT22;14078;50.974;6.786;2023-02-08T03:14:54;-0.60;99.90
26378;DHT22;14078;50.974;6.786;2023-02-08T03:17:27;-0.60;99.90
26378;DHT22;14078;50.974;6.786;2023-02-08T03:20:00;-0.80;1.00
26378;DHT22;14078;50.974;6.786;2023-02-08T03:22:30;-0.80;1.00
26378;DHT22;14078;50.974;6.786;2023-02-08T03:24:59;-0.80;1.00
26378;DHT22;14078;50.974;6.786;2023-02-08T03:27:29;-0.80;1.00
26378;DHT22;14078;50.974;6.786;2023-02-08T03:29:58;-0.80;1.00
26378;DHT22;14078;50.974;6.786;2023-02-08T03:32:28;-0.90;1.00
26378;DHT22;14078;50.974;6.786;2023-02-08T03:34:57;-0.90;1.00
26378;DHT22;14078;50.974;6.786;2023-02-08T03:37:27;-0.90;1.00
26378;DHT22;14078;50.974;6.786;2023-02-08T03:39:56;-0.90;1.00
26378;DHT22;14078;50.974;6.786;2023-02-08T03:42:24;-1.00;3.20
26378;DHT22;14078;50.974;6.786;2023-02-08T03:44:53;-1.00;18.00
26378;DHT22;14078;50.974;6.786;2023-02-08T03:47:22;-1.00;35.10
26378;DHT22;14078;50.974;6.786;2023-02-08T03:49:49;-1.00;27.30
26378;DHT22;14078;50.974;6.786;2023-02-08T03:52:17;-1.00;1.00
26378;DHT22;14078;50.974;6.786;2023-02-08T03:54:46;-0.90;4.80
26378;DHT22;14078;50.974;6.786;2023-02-08T03:57:15;-1.00;1.00
26378;DHT22;14078;50.974;6.786;2023-02-08T03:59:45;-0.90;1.00
26378;DHT22;14078;50.974;6.786;2023-02-08T04:02:13;-1.00;1.00
26378;DHT22;14078;50.974;6.786;2023-02-08T04:04:43;-1.00;1.00
26378;DHT22;14078;50.974;6.786;2023-02-08T04:07:10;-1.10;1.00
26378;DHT22;14078;50.974;6.786;2023-02-08T04:09:37;-1.10;1.00
26378;DHT22;14078;50.974;6.786;2023-02-08T04:12:05;-1.10;1.00
26378;DHT22;14078;50.974;6.786;2023-02-08T04:14:32;-1.10;2.00
26378;DHT22;14078;50.974;6.786;2023-02-08T04:16:58;-1.10;25.20
26378;DHT22;14078;50.974;6.786;2023-02-08T04:19:25;-1.10;7.30
26378;DHT22;14078;50.974;6.786;2023-02-08T04:21:51;-1.20;1.20
26378;DHT22;14078;50.974;6.786;2023-02-08T04:24:18;-1.20;3.10
26378;DHT22;14078;50.974;6.786;2023-02-08T04:26:45;-1.20;1.00
26378;DHT22;14078;50.974;6.786;2023-02-08T04:29:13;-1.20;12.50
26378;DHT22;14078;50.974;6.786;2023-02-08T04:31:39;-1.20;1.00
26378;DHT22;14078;50.974;6.786;2023-02-08T04:34:06;-1.10;11.00
26378;DHT22;14078;50.974;6.786;2023-02-08T04:36:32;-1.10;1.00
26378;DHT22;14078;50.974;6.786;2023-02-08T04:38:59;-1.10;2.80
26378;DHT22;14078;50.974;6.786;2023-02-08T04:41:25;-1.10;1.00
26378;DHT22;14078;50.974;6.786;2023-02-08T04:43:52;-1.00;1.00
26378;DHT22;14078;50.974;6.786;2023-02-08T04:46:20;-1.00;1.00
26378;DHT22;14078;50.974;6.786;2023-02-08T04:48:46;-1.00;1.00
26378;DHT22;14078;50.974;6.786;2023-02-08T04:51:13;-1.10;1.00
26378;DHT22;14078;50.974;6.786;2023-02-08T04:53:39;-1.10;1.00
26378;DHT22;14078;50.974;6.786;2023-02-08T04:56:06;-1.20;1.00
26378;DHT22;14078;50.974;6.786;2023-02-08T04:58:32;-1.10;22.10
26378;DHT22;14078;50.974;6.786;2023-02-08T05:00:59;-1.20;1.00
26378;DHT22;14078;50.974;6.786;2023-02-08T05:03:27;-1.20;1.40
26378;DHT22;14078;50.974;6.786;2023-02-08T05:05:56;-1.20;34.70
26378;DHT22;14078;50.974;6.786;2023-02-08T05:08:23;-1.20;50.30
26378;DHT22;14078;50.974;6.786;2023-02-08T05:10:50;-1.20;54.70
26378;DHT22;14078;50.974;6.786;2023-02-08T05:13:16;-1.30;56.50
26378;DHT22;14078;50.974;6.786;2023-02-08T05:15:43;-1.20;79.50
26378;DHT22;14078;50.974;6.786;2023-02-08T05:18:09;-1.20;83.60
26378;DHT22;14078;50.974;6.786;2023-02-08T05:20:37;-1.20;85.50
26378;DHT22;14078;50.974;6.786;2023-02-08T05:23:04;-1.20;86.90
26378;DHT22;14078;50.974;6.786;2023-02-08T05:25:30;-1.20;53.70
26378;DHT22;14078;50.974;6.786;2023-02-08T05:27:57;-1.20;49.40
26378;DHT22;14078;50.974;6.786;2023-02-08T05:30:24;-1.20;49.50
26378;DHT22;14078;50.974;6.786;2023-02-08T05:32:50;-1.10;49.20
26378;DHT22;14078;50.974;6.786;2023-02-08T05:35:17;-1.20;37.40
26378;DHT22;14078;50.974;6.786;2023-02-08T05:37:45;-1.30;53.80
26378;DHT22;14078;50.974;6.786;2023-02-08T05:40:11;-1.30;55.10
26378;DHT22;14078;50.974;6.786;2023-02-08T05:42:38;-1.30;53.10
26378;DHT22;14078;50.974;6.786;2023-02-08T05:45:06;-1.30;26.20
26378;DHT22;14078;50.974;6.786;2023-02-08T05:47:33;-1.30;13.60
26378;DHT22;14078;50.974;6.786;2023-02-08T05:49:59;-1.40;26.10
26378;DHT22;14078;50.974;6.786;2023-02-08T05:52:26;-1.40;38.50
26378;DHT22;14078;50.974;6.786;2023-02-08T05:54:55;-1.40;29.90
26378;DHT22;14078;50.974;6.786;2023-02-08T05:57:22;-1.40;41.90
26378;DHT22;14078;50.974;6.786;2023-02-08T05:59:48;-1.40;48.90
26378;DHT22;14078;50.974;6.786;2023-02-08T06:02:15;-1.30;45.70
26378;DHT22;14078;50.974;6.786;2023-02-08T06:04:41;-1.40;48.50
26378;DHT22;14078;50.974;6.786;2023-02-08T06:07:08;-1.30;38.90
26378;DHT22;14078;50.974;6.786;2023-02-08T06:09:35;-1.30;44.30
26378;DHT22;14078;50.974;6.786;2023-02-08T06:12:03;-1.30;72.50
26378;DHT22;14078;50.974;6.786;2023-02-08T06:14:29;-1.30;58.10
26378;DHT22;14078;50.974;6.786;2023-02-08T06:16:56;-1.30;10.20
26378;DHT22;14078;50.974;6.786;2023-02-08T06:19:22;-1.40;12.60
26378;DHT22;14078;50.974;6.786;2023-02-08T06:21:49;-1.40;37.50
26378;DHT22;14078;50.974;6.786;2023-02-08T06:24:15;-1.30;17.60
26378;DHT22;14078;50.974;6.786;2023-02-08T06:26:42;-1.30;3.70
26378;DHT22;14078;50.974;6.786;2023-02-08T06:29:10;-1.30;1.00
26378;DHT22;14078;50.974;6.786;2023-02-08T06:31:36;-1.40;1.00
26378;DHT22;14078;50.974;6.786;2023-02-08T06:34:03;-1.30;1.00
26378;DHT22;14078;50.974;6.786;2023-02-08T06:36:29;-1.40;1.00
26378;DHT22;14078;50.974;6.786;2023-02-08T06:38:56;-1.40;1.00
26378;DHT22;14078;50.974;6.786;2023-02-08T06:41:22;-1.40;1.00
26378;DHT22;14078;50.974;6.786;2023-02-08T06:43:49;-1.40;1.00
26378;DHT22;14078;50.974;6.786;2023-02-08T06:46:17;-1.40;1.00
26378;DHT22;14078;50.974;6.786;2023-02-08T06:48:43;-1.40;1.00
26378;DHT22;14078;50.974;6.786;2023-02-08T06:51:10;-1.40;1.00
26378;DHT22;14078;50.974;6.786;2023-02-08T06:53:36;-1.40;9.50
26378;DHT22;14078;50.974;6.786;2023-02-08T06:56:03;-1.40;1.00
26378;DHT22;14078;50.974;6.786;2023-02-08T06:58:29;-1.30;1.00
26378;DHT22;14078;50.974;6.786;2023-02-08T07:00:56;-1.30;1.00
26378;DHT22;14078;50.974;6.786;2023-02-08T07:03:24;-1.30;1.00
26378;DHT22;14078;50.974;6.786;2023-02-08T07:05:50;-1.30;1.00
26378;DHT22;14078;50.974;6.786;2023-02-08T07:08:17;-1.30;1.00
26378;DHT22;14078;50.974;6.786;2023-02-08T07:10:43;-1.30;1.00
26378;DHT22;14078;50.974;6.786;2023-02-08T07:13:10;-1.30;1.00
26378;DHT22;14078;50.974;6.786;2023-02-08T07:15:37;-1.30;1.00
26378;DHT22;14078;50.974;6.786;2023-02-08T07:18:03;-1.30;36.90
26378;DHT22;14078;50.974;6.786;2023-02-08T07:20:31;-1.30;35.90
26378;DHT22;14078;50.974;6.786;2023-02-08T07:22:58;-1.30;3.40
26378;DHT22;14078;50.974;6.786;2023-02-08T07:25:24;-1.30;1.00
26378;DHT22;14078;50.974;6.786;2023-02-08T07:27:51;-1.40;13.70
26378;DHT22;14078;50.974;6.786;2023-02-08T07:30:18;-1.30;10.20
26378;DHT22;14078;50.974;6.786;2023-02-08T07:32:44;-1.30;14.90
26378;DHT22;14078;50.974;6.786;2023-02-08T07:35:11;-1.30;21.20
26378;DHT22;14078;50.974;6.786;2023-02-08T07:37:38;-1.20;16.50
26378;DHT22;14078;50.974;6.786;2023-02-08T07:40:05;-1.20;19.10
26378;DHT22;14078;50.974;6.786;2023-02-08T07:42:32;-1.20;12.50
26378;DHT22;14078;50.974;6.786;2023-02-08T07:44:58;-1.20;23.20
26378;DHT22;14078;50.974;6.786;2023-02-08T07:47:25;-1.20;27.40
26378;DHT22;14078;50.974;6.786;2023-02-08T07:49:51;-1.10;17.20
26378;DHT22;14078;50.974;6.786;2023-02-08T07:52:18;-1.20;1.00
26378;DHT22;14078;50.974;6.786;2023-02-08T07:54:46;-1.10;1.00
26378;DHT22;14078;50.974;6.786;2023-02-08T07:57:12;-1.10;4.80
26378;DHT22;14078;50.974;6.786;2023-02-08T07:59:45;-1.00;24.60
26378;DHT22;14078;50.974;6.786;2023-02-08T08:02:12;-1.00;31.00
26378;DHT22;14078;50.974;6.786;2023-02-08T08:04:39;-0.90;21.50
26378;DHT22;14078;50.974;6.786;2023-02-08T08:07:05;-0.90;7.90
26378;DHT22;14078;50.974;6.786;2023-02-08T08:09:32;-0.80;1.00
26378;DHT22;14078;50.974;6.786;2023-02-08T08:12:00;-0.60;1.00
26378;DHT22;14078;50.974;6.786;2023-02-08T08:14:27;-0.70;1.00
26378;DHT22;14078;50.974;6.786;2023-02-08T08:16:54;-0.60;1.00
26378;DHT22;14078;50.974;6.786;2023-02-08T08:19:20;-0.60;1.00
26378;DHT22;14078;50.974;6.786;2023-02-08T08:21:47;-0.60;1.00
26378;DHT22;14078;50.974;6.786;2023-02-08T08:24:14;-0.60;1.00
26378;DHT22;14078;50.974;6.786;2023-02-08T08:26:40;-0.50;1.00
26378;DHT22;14078;50.974;6.786;2023-02-08T08:29:08;-0.40;1.00
26378;DHT22;14078;50.974;6.786;2023-02-08T08:31:34;-0.40;1.00
26378;DHT22;14078;50.974;6.786;2023-02-08T08:34:02;-0.30;1.00
26378;DHT22;14078;50.974;6.786;2023-02-08T08:36:29;-0.20;1.00
26378;DHT22;14078;50.974;6.786;2023-02-08T08:38:55;-0.10;1.00
26378;DHT22;14078;50.974;6.786;2023-02-08T08:41:22;0.00;1.00
26378;DHT22;14078;50.974;6.786;2023-02-08T08:43:51;0.10;1.00
26378;DHT22;14078;50.974;6.786;2023-02-08T08:46:19;0.10;1.00
26378;DHT22;14078;50.974;6.786;2023-02-08T08:48:46;0.10;1.00
26378;DHT22;14078;50.974;6.786;2023-02-08T08:51:12;0.20;99.90
26378;DHT22;14078;50.974;6.786;2023-02-08T08:53:39;0.20;99.90
26378;DHT22;14078;50.974;6.786;2023-02-08T08:56:06;0.30;99.90
26378;DHT22;14078;50.974;6.786;2023-02-08T08:58:32;0.30;99.90
26378;DHT22;14078;50.974;6.786;2023-02-08T09:00:59;0.40;99.90
26378;DHT22;14078;50.974;6.786;2023-02-08T09:03:28;0.50;1.00
26378;DHT22;14078;50.974;6.786;2023-02-08T09:05:54;0.50;99.90
26378;DHT22;14078;50.974;6.786;2023-02-08T09:08:21;0.60;1.00
26378;DHT22;14078;50.974;6.786;2023-02-08T09:10:47;0.70;99.90
26378;DHT22;14078;50.974;6.786;2023-02-08T09:13:14;0.70;12.00
26378;DHT22;14078;50.974;6.786;2023-02-08T09:15:44;0.80;99.90
26378;DHT22;14078;50.974;6.786;2023-02-08T09:18:10;0.90;99.90
26378;DHT22;14078;50.974;6.786;2023-02-08T09:20:38;0.90;99.90
26378;DHT22;14078;50.974;6.786;2023-02-08T09:23:05;1.00;99.90
26378;DHT22;14078;50.974;6.786;2023-02-08T09:25:31;1.10;99.90
26378;DHT22;14078;50.974;6.786;2023-02-08T09:27:58;1.20;99.90
26378;DHT22;14078;50.974;6.786;2023-02-08T09:30:25;1.20;1.00
26378;DHT22;14078;50.974;6.786;2023-02-08T09:32:51;1.30;99.90
26378;DHT22;14078;50.974;6.786;2023-02-08T09:35:18;1.40;99.90
26378;DHT22;14078;50.974;6.786;2023-02-08T09:37:45;1.40;28.90
26378;DHT22;14078;50.974;6.786;2023-02-08T09:40:18;1.50;72.90
26378;DHT22;14078;50.974;6.786;2023-02-08T09:42:46;1.60;93.80
26378;DHT22;14078;50.974;6.786;2023-02-08T09:45:23;1.60;99.90
26378;DHT22;14078;50.974;6.786;2023-02-08T09:47:53;1.70;36.20
26378;DHT22;14078;50.974;6.786;2023-02-08T09:50:23;1.70;55.20
26378;DHT22;14078;50.974;6.786;2023-02-08T09:53:00;1.80;30.00
26378;DHT22;14078;50.974;6.786;2023-02-08T09:55:29;1.80;1.00
26378;DHT22;14078;50.974;6.786;2023-02-08T09:57:57;1.80;1.00
26378;DHT22;14078;50.974;6.786;2023-02-08T10:00:26;1.90;1.00
26378;DHT22;14078;50.974;6.786;2023-02-08T10:02:55;1.90;1.00
26378;DHT22;14078;50.974;6.786;2023-02-08T10:05:23;2.00;22.90
26378;DHT22;14078;50.974;6.786;2023-02-08T10:07:51;2.00;1.00
26378;DHT22;14078;50.974;6.786;2023-02-08T10:10:24;2.10;1.00
26378;DHT22;14078;50.974;6.786;2023-02-08T10:12:55;2.10;1.00
26378;DHT22;14078;50.974;6.786;2023-02-08T10:15:28;2.20;1.00
26378;DHT22;14078;50.974;6.786;2023-02-08T10:18:05;2.30;1.00
26378;DHT22;14078;50.974;6.786;2023-02-08T10:20:39;2.30;1.00
26378;DHT22;14078;50.974;6.786;2023-02-08T10:23:13;2.30;1.00
26378;DHT22;14078;50.974;6.786;2023-02-08T10:25:48;2.40;1.00
26378;DHT22;14078;50.974;6.786;2023-02-08T10:28:27;2.40;1.00
26378;DHT22;14078;50.974;6.786;2023-02-08T10:30:56;2.50;1.00
26378;DHT22;14078;50.974;6.786;2023-02-08T10:33:29;2.50;1.00
26378;DHT22;14078;50.974;6.786;2023-02-08T10:35:57;2.60;1.00
26378;DHT22;14078;50.974;6.786;2023-02-08T10:38:24;2.60;1.00
26378;DHT22;14078;50.974;6.786;2023-02-08T10:40:53;2.60;1.00
26378;DHT22;14078;50.974;6.786;2023-02-08T10:43:23;2.70;74.00
26378;DHT22;14078;50.974;6.786;2023-02-08T10:45:53;2.80;1.00
26378;DHT22;14078;50.974;6.786;2023-02-08T10:48:30;2.80;1.00
26378;DHT22;14078;50.974;6.786;2023-02-08T10:50:59;2.80;1.00
26378;DHT22;14078;50.974;6.786;2023-02-08T10:53:26;2.90;1.00
26378;DHT22;14078;50.974;6.786;2023-02-08T10:55:54;2.90;1.00
26378;DHT22;14078;50.974;6.786;2023-02-08T10:58:22;2.90;1.00
26378;DHT22;14078;50.974;6.786;2023-02-08T11:00:49;3.00;1.00
26378;DHT22;14078;50.974;6.786;2023-02-08T11:03:19;3.00;1.00
26378;DHT22;14078;50.974;6.786;2023-02-08T11:05:46;3.10;1.00
26378;DHT22;14078;50.974;6.786;2023-02-08T11:08:14;3.10;1.00
26378;DHT22;14078;50.974;6.786;2023-02-08T11:10:44;3.10;1.00
26378;DHT22;14078;50.974;6.786;2023-02-08T11:13:17;3.10;1.00
26378;DHT22;14078;50.974;6.786;2023-02-08T11:15:45;3.20;1.00
26378;DHT22;14078;50.974;6.786;2023-02-08T11:18:17;3.20;1.00
26378;DHT22;14078;50.974;6.786;2023-02-08T11:20:46;3.30;1.00
26378;DHT22;14078;50.974;6.786;2023-02-08T11:23:20;3.30;1.00
26378;DHT22;14078;50.974;6.786;2023-02-08T11:25:47;3.40;1.00
26378;DHT22;14078;50.974;6.786;2023-02-08T11:28:23;3.40;1.00
26378;DHT22;14078;50.974;6.786;2023-02-08T11:30:59;3.40;1.00
26378;DHT22;14078;50.974;6.786;2023-02-08T11:33:26;3.50;1.00
26378;DHT22;14078;50.974;6.786;2023-02-08T11:35:54;3.50;1.00
26378;DHT22;14078;50.974;6.786;2023-02-08T11:38:21;3.50;1.00
26378;DHT22;14078;50.974;6.786;2023-02-08T11:40:52;3.60;1.00
26378;DHT22;14078;50.974;6.786;2023-02-08T11:43:20;3.60;1.00
26378;DHT22;14078;50.974;6.786;2023-02-08T11:45:48;3.60;1.00
26378;DHT22;14078;50.974;6.786;2023-02-08T11:48:19;3.70;1.00
26378;DHT22;14078;50.974;6.786;2023-02-08T11:50:50;3.80;1.00
26378;DHT22;14078;50.974;6.786;2023-02-08T11:53:18;3.70;1.00
26378;DHT22;14078;50.974;6.786;2023-02-08T11:55:50;3.80;1.00
26378;DHT22;14078;50.974;6.786;2023-02-08T11:58:26;3.80;1.00
26378;DHT22;14078;50.974;6.786;2023-02-08T12:00:57;3.80;1.00
26378;DHT22;14078;50.974;6.786;2023-02-08T12:03:25;3.80;1.00
26378;DHT22;14078;50.974;6.786;2023-02-08T12:05:55;3.80;1.00
26378;DHT22;14078;50.974;6.786;2023-02-08T12:08:26;3.80;1.00
26378;DHT22;14078;50.974;6.786;2023-02-08T12:10:59;3.90;1.00
26378;DHT22;14078;50.974;6.786;2023-02-08T12:13:40;4.00;1.00
26378;DHT22;14078;50.974;6.786;2023-02-08T12:16:14;4.00;1.00
26378;DHT22;14078;50.974;6.786;2023-02-08T12:18:50;4.10;1.00
26378;DHT22;14078;50.974;6.786;2023-02-08T12:21:20;4.20;1.00
26378;DHT22;14078;50.974;6.786;2023-02-08T12:23:51;4.20;1.00
26378;DHT22;14078;50.974;6.786;2023-02-08T12:26:19;4.30;1.00
26378;DHT22;14078;50.974;6.786;2023-02-08T12:28:58;4.40;1.00
26378;DHT22;14078;50.974;6.786;2023-02-08T12:31:30;4.40;1.00
26378;DHT22;14078;50.974;6.786;2023-02-08T12:34:03;4.50;1.00
26378;DHT22;14078;50.974;6.786;2023-02-08T12:36:38;4.60;1.00
26378;DHT22;14078;50.974;6.786;2023-02-08T12:39:19;4.60;1.00
26378;DHT22;14078;50.974;6.786;2023-02-08T12:42:13;4.60;1.00
26378;DHT22;14078;50.974;6.786;2023-02-08T12:44:44;4.60;1.00
26378;DHT22;14078;50.974;6.786;2023-02-08T12:47:19;4.70;1.00
26378;DHT22;14078;50.974;6.786;2023-02-08T12:49:54;4.80;1.00
26378;DHT22;14078;50.974;6.786;2023-02-08T12:52:25;4.70;1.00
26378;DHT22;14078;50.974;6.786;2023-02-08T12:54:56;4.70;1.00
26378;DHT22;14078;50.974;6.786;2023-02-08T12:57:24;4.80;1.00
26378;DHT22;14078;50.974;6.786;2023-02-08T12:59:52;4.80;1.00
26378;DHT22;14078;50.974;6.786;2023-02-08T13:02:22;4.90;1.00
26378;DHT22;14078;50.974;6.786;2023-02-08T13:04:51;4.90;1.00
26378;DHT22;14078;50.974;6.786;2023-02-08T13:07:19;4.90;1.00
26378;DHT22;14078;50.974;6.786;2023-02-08T13:09:48;5.00;1.00
26378;DHT22;14078;50.974;6.786;2023-02-08T13:12:17;5.00;1.00
26378;DHT22;14078;50.974;6.786;2023-02-08T13:14:46;5.00;1.00
26378;DHT22;14078;50.974;6.786;2023-02-08T13:17:16;5.00;1.00
26378;DHT22;14078;50.974;6.786;2023-02-08T13:19:50;5.00;1.00
26378;DHT22;14078;50.974;6.786;2023-02-08T13:22:18;5.10;1.00
26378;DHT22;14078;50.974;6.786;2023-02-08T13:24:47;5.10;1.00
26378;DHT22;14078;50.974;6.786;2023-02-08T13:27:15;5.20;1.00
26378;DHT22;14078;50.974;6.786;2023-02-08T13:29:43;5.10;1.00
26378;DHT22;14078;50.974;6.786;2023-02-08T13:32:14;5.10;1.00
26378;DHT22;14078;50.974;6.786;2023-02-08T13:34:43;5.20;1.00
26378;DHT22;14078;50.974;6.786;2023-02-08T13:37:20;5.30;1.00
26378;DHT22;14078;50.974;6.786;2023-02-08T13:39:47;5.30;1.00
26378;DHT22;14078;50.974;6.786;2023-02-08T13:42:18;5.30;1.00
26378;DHT22;14078;50.974;6.786;2023-02-08T13:44:47;5.20;1.00
26378;DHT22;14078;50.974;6.786;2023-02-08T13:47:20;5.20;1.00
26378;DHT22;14078;50.974;6.786;2023-02-08T13:49:51;5.30;1.00
26378;DHT22;14078;50.974;6.786;2023-02-08T13:57:52;5.50;1.00
26378;DHT22;14078;50.974;6.786;2023-02-08T14:00:20;5.40;1.00
26378;DHT22;14078;50.974;6.786;2023-02-08T14:02:56;5.40;1.00
26378;DHT22;14078;50.974;6.786;2023-02-08T14:08:17;5.60;1.00
26378;DHT22;14078;50.974;6.786;2023-02-08T14:10:45;5.60;1.00
26378;DHT22;14078;50.974;6.786;2023-02-08T14:13:21;5.60;1.00
26378;DHT22;14078;50.974;6.786;2023-02-08T14:15:51;5.60;1.00
26378;DHT22;14078;50.974;6.786;2023-02-08T14:18:37;5.60;1.00
26378;DHT22;14078;50.974;6.786;2023-02-08T14:21:05;5.60;1.00
26378;DHT22;14078;50.974;6.786;2023-02-08T14:23:34;5.70;1.00
26378;DHT22;14078;50.974;6.786;2023-02-08T14:26:02;5.60;1.00
26378;DHT22;14078;50.974;6.786;2023-02-08T14:28:33;5.60;1.00
26378;DHT22;14078;50.974;6.786;2023-02-08T14:31:03;5.60;1.00
26378;DHT22;14078;50.974;6.786;2023-02-08T14:33:32;5.70;1.00
26378;DHT22;14078;50.974;6.786;2023-02-08T14:36:00;5.60;1.00
26378;DHT22;14078;50.974;6.786;2023-02-08T14:46:46;5.60;1.00
26378;DHT22;14078;50.974;6.786;2023-02-08T14:49:13;5.60;1.00
26378;DHT22;14078;50.974;6.786;2023-02-08T14:51:40;5.60;1.00
26378;DHT22;14078;50.974;6.786;2023-02-08T14:54:14;5.80;1.00
26378;DHT22;14078;50.974;6.786;2023-02-08T14:56:44;5.70;99.90
26378;DHT22;14078;50.974;6.786;2023-02-08T14:59:13;5.80;99.90
26378;DHT22;14078;50.974;6.786;2023-02-08T15:01:41;5.80;99.90
26378;DHT22;14078;50.974;6.786;2023-02-08T15:04:10;5.80;99.90
26378;DHT22;14078;50.974;6.786;2023-02-08T15:06:44;5.70;99.90
26378;DHT22;14078;50.974;6.786;2023-02-08T15:09:17;5.60;99.90
26378;DHT22;14078;50.974;6.786;2023-02-08T15:11:46;5.60;99.90
26378;DHT22;14078;50.974;6.786;2023-02-08T15:14:15;5.60;99.90
26378;DHT22;14078;50.974;6.786;2023-02-08T15:16:44;5.60;99.90
26378;DHT22;14078;50.974;6.786;2023-02-08T15:19:18;5.50;99.90
26378;DHT22;14078;50.974;6.786;2023-02-08T15:21:46;5.50;99.90
26378;DHT22;14078;50.974;6.786;2023-02-08T15:24:13;5.50;99.90
26378;DHT22;14078;50.974;6.786;2023-02-08T15:26:43;5.70;99.90
26378;DHT22;14078;50.974;6.786;2023-02-08T15:29:15;5.60;99.90
26378;DHT22;14078;50.974;6.786;2023-02-08T15:31:42;5.50;99.90
26378;DHT22;14078;50.974;6.786;2023-02-08T15:34:09;5.50;99.90
26378;DHT22;14078;50.974;6.786;2023-02-08T15:36:37;5.30;99.90
26378;DHT22;14078;50.974;6.786;2023-02-08T15:39:08;5.20;99.90
26378;DHT22;14078;50.974;6.786;2023-02-08T15:41:35;5.20;99.90
26378;DHT22;14078;50.974;6.786;2023-02-08T15:44:11;5.20;99.90
26378;DHT22;14078;50.974;6.786;2023-02-08T15:46:38;5.10;99.90
26378;DHT22;14078;50.974;6.786;2023-02-08T15:49:06;5.10;99.90
26378;DHT22;14078;50.974;6.786;2023-02-08T15:51:32;5.00;99.90
26378;DHT22;14078;50.974;6.786;2023-02-08T15:54:00;4.90;99.90
26378;DHT22;14078;50.974;6.786;2023-02-08T15:56:28;4.80;99.90
26378;DHT22;14078;50.974;6.786;2023-02-08T15:58:56;4.80;99.90
26378;DHT22;14078;50.974;6.786;2023-02-08T16:01:24;4.80;99.90
26378;DHT22;14078;50.974;6.786;2023-02-08T16:03:50;4.70;99.90
26378;DHT22;14078;50.974;6.786;2023-02-08T16:06:19;4.60;99.90
26378;DHT22;14078;50.974;6.786;2023-02-08T16:08:49;4.60;99.90
26378;DHT22;14078;50.974;6.786;2023-02-08T16:11:20;4.50;99.90
26378;DHT22;14078;50.974;6.786;2023-02-08T16:13:48;4.50;99.90
26378;DHT22;14078;50.974;6.786;2023-02-08T16:16:18;4.50;99.90